sensor_id;sensor_type;location;lat;lon;timestamp;P1;durP1;ratioP1;P2;durP2;ratioP2
7471;SDS011;3777;48.722;8.110;2022-07-01T00:00:58;1.20;;;1.10;;
7471;SDS011;3777;48.722;8.110;2022-07-01T00:03:25;1.77;;;1.20;;
7471;SDS011;3777;48.722;8.110;2022-07-01T00:05:52;1.80;;;1.17;;
7471;SDS011;3777;48.722;8.110;2022-07-01T00:08:19;1.83;;;1.50;;
7471;SDS011;3777;48.722;8.110;2022-07-01T00:10:47;1.70;;;1.27;;
7471;SDS011;3777;48.722;8.110;2022-07-01T00:13:14;1.30;;;1.20;;
7471;SDS011;3777;48.722;8.110;2022-07-01T00:15:41;2.57;;;1.33;;
7471;SDS011;3777;48.722;8.110;2022-07-01T00:18:08;2.00;;;1.20;;
7471;SDS011;3777;48.722;8.110;2022-07-01T00:20:35;1.40;;;1.20;;
7471;SDS011;3777;48.722;8.110;2022-07-01T00:23:02;2.10;;;1.27;;
7471;SDS011;3777;48.722;8.110;2022-07-01T00:25:29;1.60;;;1.27;;
7471;SDS011;3777;48.722;8.110;2022-07-01T00:27:58;1.70;;;1.30;;
7471;SDS011;3777;48.722;8.110;2022-07-01T00:30:25;2.87;;;1.50;;
7471;SDS011;3777;48.722;8.110;2022-07-01T00:32:52;1.67;;;1.30;;
7471;SDS011;3777;48.722;8.110;2022-07-01T00:35:19;2.60;;;1.37;;
7471;SDS011;3777;48.722;8.110;2022-07-01T00:37:46;1.37;;;1.23;;
7471;SDS011;3777;48.722;8.110;2022-07-01T00:40:13;1.30;;;1.20;;
7471;SDS011;3777;48.722;8.110;2022-07-01T00:42:40;3.43;;;1.50;;
7471;SDS011;3777;48.722;8.110;2022-07-01T00:45:10;2.50;;;1.13;;
7471;SDS011;3777;48.722;8.110;2022-07-01T00:47:38;2.40;;;1.20;;
7471;SDS011;3777;48.722;8.110;2022-07-01T00:50:07;2.80;;;1.40;;
7471;SDS011;3777;48.722;8.110;2022-07-01T00:52:38;4.73;;;1.40;;
7471;SDS011;3777;48.722;8.110;2022-07-01T00:55:07;1.87;;;1.40;;
7471;SDS011;3777;48.722;8.110;2022-07-01T00:57:37;1.50;;;1.40;;
7471;SDS011;3777;48.722;8.110;2022-07-01T01:00:06;2.13;;;1.33;;
7471;SDS011;3777;48.722;8.110;2022-07-01T01:02:36;1.60;;;1.30;;
7471;SDS011;3777;48.722;8.110;2022-07-01T01:05:04;4.50;;;1.47;;
7471;SDS011;3777;48.722;8.110;2022-07-01T01:07:32;2.23;;;1.33;;
7471;SDS011;3777;48.722;8.110;2022-07-01T01:09:59;2.37;;;1.30;;
7471;SDS011;3777;48.722;8.110;2022-07-01T01:12:28;3.97;;;1.43;;
7471;SDS011;3777;48.722;8.110;2022-07-01T01:14:55;1.80;;;1.60;;
7471;SDS011;3777;48.722;8.110;2022-07-01T01:17:23;1.80;;;1.60;;
7471;SDS011;3777;48.722;8.110;2022-07-01T01:19:51;4.37;;;1.60;;
7471;SDS011;3777;48.722;8.110;2022-07-01T01:22:21;4.57;;;1.67;;
7471;SDS011;3777;48.722;8.110;2022-07-01T01:24:48;2.30;;;1.50;;
7471;SDS011;3777;48.722;8.110;2022-07-01T01:27:14;1.83;;;1.50;;
7471;SDS011;3777;48.722;8.110;2022-07-01T01:29:42;1.60;;;1.50;;
7471;SDS011;3777;48.722;8.110;2022-07-01T01:32:10;1.90;;;1.70;;
7471;SDS011;3777;48.722;8.110;2022-07-01T01:34:37;1.77;;;1.67;;
7471;SDS011;3777;48.722;8.110;2022-07-01T01:37:05;1.57;;;1.47;;
7471;SDS011;3777;48.722;8.110;2022-07-01T01:39:34;2.77;;;1.50;;
7471;SDS011;3777;48.722;8.110;2022-07-01T01:42:03;2.57;;;1.40;;
7471;SDS011;3777;48.722;8.110;2022-07-01T01:44:30;2.70;;;1.60;;
7471;SDS011;3777;48.722;8.110;2022-07-01T01:46:58;1.60;;;1.50;;
7471;SDS011;3777;48.722;8.110;2022-07-01T01:49:25;2.17;;;1.37;;
7471;SDS011;3777;48.722;8.110;2022-07-01T01:51:51;2.40;;;1.57;;
7471;SDS011;3777;48.722;8.110;2022-07-01T01:54:19;3.03;;;1.70;;
7471;SDS011;3777;48.722;8.110;2022-07-01T01:56:47;2.27;;;1.80;;
7471;SDS011;3777;48.722;8.110;2022-07-01T01:59:14;3.60;;;1.80;;
7471;SDS011;3777;48.722;8.110;2022-07-01T02:01:41;2.70;;;1.70;;
7471;SDS011;3777;48.722;8.110;2022-07-01T02:04:08;2.03;;;1.63;;
7471;SDS011;3777;48.722;8.110;2022-07-01T02:06:36;4.00;;;1.70;;
7471;SDS011;3777;48.722;8.110;2022-07-01T02:09:06;1.63;;;1.53;;
7471;SDS011;3777;48.722;8.110;2022-07-01T02:11:34;2.97;;;1.57;;
7471;SDS011;3777;48.722;8.110;2022-07-01T02:14:02;3.40;;;1.53;;
7471;SDS011;3777;48.722;8.110;2022-07-01T02:16:29;1.67;;;1.57;;
7471;SDS011;3777;48.722;8.110;2022-07-01T02:18:56;1.83;;;1.70;;
7471;SDS011;3777;48.722;8.110;2022-07-01T02:21:24;2.80;;;1.60;;
7471;SDS011;3777;48.722;8.110;2022-07-01T02:23:51;3.90;;;1.63;;
7471;SDS011;3777;48.722;8.110;2022-07-01T02:26:18;1.73;;;1.60;;
7471;SDS011;3777;48.722;8.110;2022-07-01T02:31:52;1.80;;;1.60;;
7471;SDS011;3777;48.722;8.110;2022-07-01T02:34:19;4.13;;;1.63;;
7471;SDS011;3777;48.722;8.110;2022-07-01T02:36:46;2.43;;;1.70;;
7471;SDS011;3777;48.722;8.110;2022-07-01T02:39:13;1.60;;;1.50;;
7471;SDS011;3777;48.722;8.110;2022-07-01T02:41:40;1.90;;;1.60;;
7471;SDS011;3777;48.722;8.110;2022-07-01T02:44:26;2.87;;;1.90;;
7471;SDS011;3777;48.722;8.110;2022-07-01T02:46:54;2.27;;;1.70;;
7471;SDS011;3777;48.722;8.110;2022-07-01T02:49:22;2.50;;;1.80;;
7471;SDS011;3777;48.722;8.110;2022-07-01T02:51:49;1.90;;;1.60;;
7471;SDS011;3777;48.722;8.110;2022-07-01T02:54:16;1.70;;;1.60;;
7471;SDS011;3777;48.722;8.110;2022-07-01T02:56:43;1.60;;;1.40;;
7471;SDS011;3777;48.722;8.110;2022-07-01T02:59:10;2.30;;;1.50;;
7471;SDS011;3777;48.722;8.110;2022-07-01T03:01:38;1.90;;;1.60;;
7471;SDS011;3777;48.722;8.110;2022-07-01T03:04:05;4.97;;;1.80;;
7471;SDS011;3777;48.722;8.110;2022-07-01T03:06:32;4.27;;;1.80;;
7471;SDS011;3777;48.722;8.110;2022-07-01T03:08:59;4.70;;;1.93;;
7471;SDS011;3777;48.722;8.110;2022-07-01T03:11:26;1.93;;;1.50;;
7471;SDS011;3777;48.722;8.110;2022-07-01T03:13:53;1.80;;;1.50;;
7471;SDS011;3777;48.722;8.110;2022-07-01T03:16:20;2.37;;;1.70;;
7471;SDS011;3777;48.722;8.110;2022-07-01T03:18:49;3.07;;;1.70;;
7471;SDS011;3777;48.722;8.110;2022-07-01T03:21:16;3.00;;;1.87;;
7471;SDS011;3777;48.722;8.110;2022-07-01T03:23:43;1.90;;;1.50;;
7471;SDS011;3777;48.722;8.110;2022-07-01T03:26:10;3.23;;;1.73;;
7471;SDS011;3777;48.722;8.110;2022-07-01T03:28:37;2.07;;;1.83;;
7471;SDS011;3777;48.722;8.110;2022-07-01T03:31:04;2.90;;;1.53;;
7471;SDS011;3777;48.722;8.110;2022-07-01T03:33:31;2.60;;;1.60;;
7471;SDS011;3777;48.722;8.110;2022-07-01T03:35:59;3.63;;;1.90;;
7471;SDS011;3777;48.722;8.110;2022-07-01T03:38:27;2.63;;;1.70;;
7471;SDS011;3777;48.722;8.110;2022-07-01T03:40:54;2.30;;;1.60;;
7471;SDS011;3777;48.722;8.110;2022-07-01T03:43:21;3.77;;;1.80;;
7471;SDS011;3777;48.722;8.110;2022-07-01T03:45:48;5.67;;;1.80;;
7471;SDS011;3777;48.722;8.110;2022-07-01T03:48:15;1.70;;;1.60;;
7471;SDS011;3777;48.722;8.110;2022-07-01T03:50:42;3.00;;;1.60;;
7471;SDS011;3777;48.722;8.110;2022-07-01T03:53:10;2.10;;;1.67;;
7471;SDS011;3777;48.722;8.110;2022-07-01T03:55:55;3.60;;;1.77;;
7471;SDS011;3777;48.722;8.110;2022-07-01T03:58:22;4.30;;;1.60;;
7471;SDS011;3777;48.722;8.110;2022-07-01T04:00:49;2.93;;;2.00;;
7471;SDS011;3777;48.722;8.110;2022-07-01T04:03:16;3.83;;;1.90;;
7471;SDS011;3777;48.722;8.110;2022-07-01T04:05:43;4.27;;;1.70;;
7471;SDS011;3777;48.722;8.110;2022-07-01T04:08:11;2.53;;;1.90;;
7471;SDS011;3777;48.722;8.110;2022-07-01T04:10:40;1.90;;;1.60;;
7471;SDS011;3777;48.722;8.110;2022-07-01T04:13:07;2.63;;;1.73;;
7471;SDS011;3777;48.722;8.110;2022-07-01T04:15:35;2.90;;;1.60;;
7471;SDS011;3777;48.722;8.110;2022-07-01T04:18:02;2.37;;;1.80;;
7471;SDS011;3777;48.722;8.110;2022-07-01T04:20:29;4.20;;;1.80;;
7471;SDS011;3777;48.722;8.110;2022-07-01T04:22:56;3.17;;;1.90;;
7471;SDS011;3777;48.722;8.110;2022-07-01T04:25:23;2.63;;;2.00;;
7471;SDS011;3777;48.722;8.110;2022-07-01T04:27:50;2.90;;;1.80;;
7471;SDS011;3777;48.722;8.110;2022-07-01T04:30:17;3.17;;;1.80;;
7471;SDS011;3777;48.722;8.110;2022-07-01T04:32:44;1.90;;;1.70;;
7471;SDS011;3777;48.722;8.110;2022-07-01T04:35:11;1.90;;;1.70;;
7471;SDS011;3777;48.722;8.110;2022-07-01T04:37:39;2.87;;;1.53;;
7471;SDS011;3777;48.722;8.110;2022-07-01T04:40:06;2.63;;;1.80;;
7471;SDS011;3777;48.722;8.110;2022-07-01T04:42:35;3.30;;;1.70;;
7471;SDS011;3777;48.722;8.110;2022-07-01T04:45:01;3.47;;;1.70;;
7471;SDS011;3777;48.722;8.110;2022-07-01T04:47:29;3.20;;;1.90;;
7471;SDS011;3777;48.722;8.110;2022-07-01T04:49:57;2.20;;;1.50;;
7471;SDS011;3777;48.722;8.110;2022-07-01T04:52:26;2.53;;;1.70;;
7471;SDS011;3777;48.722;8.110;2022-07-01T04:54:53;3.80;;;1.70;;
7471;SDS011;3777;48.722;8.110;2022-07-01T04:57:20;2.83;;;1.50;;
7471;SDS011;3777;48.722;8.110;2022-07-01T04:59:49;1.60;;;1.50;;
7471;SDS011;3777;48.722;8.110;2022-07-01T05:02:16;3.10;;;1.90;;
7471;SDS011;3777;48.722;8.110;2022-07-01T05:04:43;3.97;;;1.60;;
7471;SDS011;3777;48.722;8.110;2022-07-01T05:07:10;3.77;;;1.70;;
7471;SDS011;3777;48.722;8.110;2022-07-01T05:09:53;2.17;;;1.50;;
7471;SDS011;3777;48.722;8.110;2022-07-01T05:12:20;4.90;;;1.60;;
7471;SDS011;3777;48.722;8.110;2022-07-01T05:14:49;2.50;;;1.50;;
7471;SDS011;3777;48.722;8.110;2022-07-01T05:17:16;4.53;;;1.40;;
7471;SDS011;3777;48.722;8.110;2022-07-01T05:19:43;2.10;;;1.67;;
7471;SDS011;3777;48.722;8.110;2022-07-01T05:22:27;2.90;;;1.30;;
7471;SDS011;3777;48.722;8.110;2022-07-01T05:24:54;4.40;;;1.40;;
7471;SDS011;3777;48.722;8.110;2022-07-01T05:27:21;2.23;;;1.37;;
7471;SDS011;3777;48.722;8.110;2022-07-01T05:29:51;1.37;;;1.27;;
7471;SDS011;3777;48.722;8.110;2022-07-01T05:32:18;5.67;;;1.47;;
7471;SDS011;3777;48.722;8.110;2022-07-01T05:34:45;2.43;;;1.50;;
7471;SDS011;3777;48.722;8.110;2022-07-01T05:37:12;2.77;;;1.60;;
7471;SDS011;3777;48.722;8.110;2022-07-01T05:39:42;1.80;;;1.30;;
7471;SDS011;3777;48.722;8.110;2022-07-01T05:42:09;1.70;;;1.60;;
7471;SDS011;3777;48.722;8.110;2022-07-01T05:44:36;3.70;;;1.60;;
7471;SDS011;3777;48.722;8.110;2022-07-01T05:47:04;2.50;;;1.53;;
7471;SDS011;3777;48.722;8.110;2022-07-01T05:49:31;2.93;;;1.50;;
7471;SDS011;3777;48.722;8.110;2022-07-01T05:51:58;2.30;;;1.50;;
7471;SDS011;3777;48.722;8.110;2022-07-01T05:54:25;4.10;;;1.70;;
7471;SDS011;3777;48.722;8.110;2022-07-01T05:56:53;3.73;;;1.60;;
7471;SDS011;3777;48.722;8.110;2022-07-01T05:59:20;1.87;;;1.50;;
7471;SDS011;3777;48.722;8.110;2022-07-01T06:01:47;2.10;;;1.40;;
7471;SDS011;3777;48.722;8.110;2022-07-01T06:04:17;2.00;;;1.40;;
7471;SDS011;3777;48.722;8.110;2022-07-01T06:06:44;1.80;;;1.40;;
7471;SDS011;3777;48.722;8.110;2022-07-01T06:09:11;2.60;;;1.53;;
7471;SDS011;3777;48.722;8.110;2022-07-01T06:11:38;2.13;;;1.40;;
7471;SDS011;3777;48.722;8.110;2022-07-01T06:14:05;3.13;;;1.70;;
7471;SDS011;3777;48.722;8.110;2022-07-01T06:16:32;2.70;;;1.40;;
7471;SDS011;3777;48.722;8.110;2022-07-01T06:18:59;2.80;;;1.50;;
7471;SDS011;3777;48.722;8.110;2022-07-01T06:21:27;2.83;;;1.30;;
7471;SDS011;3777;48.722;8.110;2022-07-01T06:23:54;1.87;;;1.60;;
7471;SDS011;3777;48.722;8.110;2022-07-01T06:26:22;1.83;;;1.30;;
7471;SDS011;3777;48.722;8.110;2022-07-01T06:28:49;3.17;;;1.40;;
7471;SDS011;3777;48.722;8.110;2022-07-01T06:31:16;5.03;;;1.50;;
7471;SDS011;3777;48.722;8.110;2022-07-01T06:33:43;1.80;;;1.30;;
7471;SDS011;3777;48.722;8.110;2022-07-01T06:36:10;2.33;;;1.30;;
7471;SDS011;3777;48.722;8.110;2022-07-01T06:38:40;3.13;;;1.33;;
7471;SDS011;3777;48.722;8.110;2022-07-01T06:41:07;2.30;;;1.50;;
7471;SDS011;3777;48.722;8.110;2022-07-01T06:43:51;2.60;;;1.50;;
7471;SDS011;3777;48.722;8.110;2022-07-01T06:46:18;1.57;;;1.37;;
7471;SDS011;3777;48.722;8.110;2022-07-01T06:48:45;2.43;;;1.50;;
7471;SDS011;3777;48.722;8.110;2022-07-01T06:51:12;2.13;;;1.50;;
7471;SDS011;3777;48.722;8.110;2022-07-01T06:53:41;2.33;;;1.43;;
7471;SDS011;3777;48.722;8.110;2022-07-01T06:56:10;2.07;;;1.40;;
7471;SDS011;3777;48.722;8.110;2022-07-01T06:58:37;2.83;;;1.47;;
7471;SDS011;3777;48.722;8.110;2022-07-01T07:01:04;4.73;;;1.70;;
7471;SDS011;3777;48.722;8.110;2022-07-01T07:03:32;3.33;;;1.50;;
7471;SDS011;3777;48.722;8.110;2022-07-01T07:05:59;4.13;;;1.77;;
7471;SDS011;3777;48.722;8.110;2022-07-01T07:08:27;2.70;;;1.57;;
7471;SDS011;3777;48.722;8.110;2022-07-01T07:10:56;2.40;;;1.73;;
7471;SDS011;3777;48.722;8.110;2022-07-01T07:13:23;2.80;;;1.50;;
7471;SDS011;3777;48.722;8.110;2022-07-01T07:15:50;2.90;;;1.80;;
7471;SDS011;3777;48.722;8.110;2022-07-01T07:18:17;3.17;;;1.90;;
7471;SDS011;3777;48.722;8.110;2022-07-01T07:20:44;2.43;;;1.57;;
7471;SDS011;3777;48.722;8.110;2022-07-01T07:23:12;3.20;;;1.60;;
7471;SDS011;3777;48.722;8.110;2022-07-01T07:25:40;3.63;;;1.60;;
7471;SDS011;3777;48.722;8.110;2022-07-01T07:28:08;4.20;;;1.67;;
7471;SDS011;3777;48.722;8.110;2022-07-01T07:30:35;1.97;;;1.60;;
7471;SDS011;3777;48.722;8.110;2022-07-01T07:33:02;1.87;;;1.50;;
7471;SDS011;3777;48.722;8.110;2022-07-01T07:35:30;1.50;;;1.40;;
7471;SDS011;3777;48.722;8.110;2022-07-01T07:37:57;2.03;;;1.60;;
7471;SDS011;3777;48.722;8.110;2022-07-01T07:40:24;2.17;;;1.50;;
7471;SDS011;3777;48.722;8.110;2022-07-01T07:42:51;1.93;;;1.73;;
7471;SDS011;3777;48.722;8.110;2022-07-01T07:45:19;2.13;;;1.50;;
7471;SDS011;3777;48.722;8.110;2022-07-01T07:47:46;2.87;;;1.70;;
7471;SDS011;3777;48.722;8.110;2022-07-01T07:50:15;2.17;;;1.60;;
7471;SDS011;3777;48.722;8.110;2022-07-01T07:52:42;4.13;;;1.70;;
7471;SDS011;3777;48.722;8.110;2022-07-01T07:55:09;1.70;;;1.57;;
7471;SDS011;3777;48.722;8.110;2022-07-01T07:57:36;2.83;;;1.77;;
7471;SDS011;3777;48.722;8.110;2022-07-01T08:00:04;2.87;;;1.90;;
7471;SDS011;3777;48.722;8.110;2022-07-01T08:02:34;4.50;;;1.70;;
7471;SDS011;3777;48.722;8.110;2022-07-01T08:05:01;2.80;;;2.00;;
7471;SDS011;3777;48.722;8.110;2022-07-01T08:07:29;2.43;;;1.73;;
7471;SDS011;3777;48.722;8.110;2022-07-01T08:09:56;2.67;;;2.10;;
7471;SDS011;3777;48.722;8.110;2022-07-01T08:12:23;2.30;;;1.97;;
7471;SDS011;3777;48.722;8.110;2022-07-01T08:14:51;1.77;;;1.60;;
7471;SDS011;3777;48.722;8.110;2022-07-01T08:17:18;5.10;;;2.10;;
7471;SDS011;3777;48.722;8.110;2022-07-01T08:19:46;2.33;;;1.57;;
7471;SDS011;3777;48.722;8.110;2022-07-01T08:22:14;3.80;;;1.70;;
7471;SDS011;3777;48.722;8.110;2022-07-01T08:24:41;2.47;;;1.70;;
7471;SDS011;3777;48.722;8.110;2022-07-01T08:27:09;2.70;;;1.93;;
7471;SDS011;3777;48.722;8.110;2022-07-01T08:29:37;2.90;;;1.60;;
7471;SDS011;3777;48.722;8.110;2022-07-01T08:32:04;4.53;;;1.80;;
7471;SDS011;3777;48.722;8.110;2022-07-01T08:34:32;2.10;;;1.60;;
7471;SDS011;3777;48.722;8.110;2022-07-01T08:37:01;1.80;;;1.60;;
7471;SDS011;3777;48.722;8.110;2022-07-01T08:39:29;1.60;;;1.50;;
7471;SDS011;3777;48.722;8.110;2022-07-01T08:41:56;1.97;;;1.60;;
7471;SDS011;3777;48.722;8.110;2022-07-01T08:44:23;1.70;;;1.40;;
7471;SDS011;3777;48.722;8.110;2022-07-01T08:46:51;2.70;;;1.40;;
7471;SDS011;3777;48.722;8.110;2022-07-01T08:49:19;2.80;;;1.60;;
7471;SDS011;3777;48.722;8.110;2022-07-01T08:51:48;2.13;;;1.33;;
7471;SDS011;3777;48.722;8.110;2022-07-01T08:54:16;1.70;;;1.30;;
7471;SDS011;3777;48.722;8.110;2022-07-01T08:56:43;2.35;;;1.65;;
7471;SDS011;3777;48.722;8.110;2022-07-01T08:59:12;3.22;;;1.45;;
7471;SDS011;3777;48.722;8.110;2022-07-01T09:01:53;2.03;;;1.40;;
7471;SDS011;3777;48.722;8.110;2022-07-01T09:04:21;2.85;;;1.40;;
7471;SDS011;3777;48.722;8.110;2022-07-01T09:06:49;2.60;;;1.40;;
7471;SDS011;3777;48.722;8.110;2022-07-01T09:09:18;2.00;;;1.50;;
7471;SDS011;3777;48.722;8.110;2022-07-01T09:11:45;2.47;;;1.45;;
7471;SDS011;3777;48.722;8.110;2022-07-01T09:14:18;2.00;;;1.25;;
7471;SDS011;3777;48.722;8.110;2022-07-01T09:16:47;2.70;;;1.25;;
7471;SDS011;3777;48.722;8.110;2022-07-01T09:19:15;1.35;;;1.20;;
7471;SDS011;3777;48.722;8.110;2022-07-01T09:21:46;1.40;;;1.10;;
7471;SDS011;3777;48.722;8.110;2022-07-01T09:24:29;1.35;;;1.20;;
7471;SDS011;3777;48.722;8.110;2022-07-01T09:26:57;1.58;;;1.20;;
7471;SDS011;3777;48.722;8.110;2022-07-01T09:29:26;1.30;;;1.20;;
7471;SDS011;3777;48.722;8.110;2022-07-01T09:31:58;2.75;;;1.40;;
7471;SDS011;3777;48.722;8.110;2022-07-01T09:34:26;1.67;;;1.30;;
7471;SDS011;3777;48.722;8.110;2022-07-01T09:36:58;1.55;;;1.15;;
7471;SDS011;3777;48.722;8.110;2022-07-01T09:39:25;2.15;;;1.38;;
7471;SDS011;3777;48.722;8.110;2022-07-01T09:41:55;1.85;;;1.02;;
7471;SDS011;3777;48.722;8.110;2022-07-01T09:44:23;1.38;;;1.10;;
7471;SDS011;3777;48.722;8.110;2022-07-01T09:46:52;2.88;;;1.00;;
7471;SDS011;3777;48.722;8.110;2022-07-01T09:49:23;2.33;;;1.10;;
7471;SDS011;3777;48.722;8.110;2022-07-01T09:51:50;1.25;;;1.15;;
7471;SDS011;3777;48.722;8.110;2022-07-01T09:54:18;3.88;;;1.33;;
7471;SDS011;3777;48.722;8.110;2022-07-01T09:56:45;2.35;;;1.15;;
7471;SDS011;3777;48.722;8.110;2022-07-01T09:59:14;2.28;;;1.23;;
7471;SDS011;3777;48.722;8.110;2022-07-01T10:01:41;1.80;;;1.20;;
7471;SDS011;3777;48.722;8.110;2022-07-01T10:04:10;2.42;;;1.10;;
7471;SDS011;3777;48.722;8.110;2022-07-01T10:06:46;1.67;;;1.17;;
7471;SDS011;3777;48.722;8.110;2022-07-01T10:09:43;1.33;;;1.02;;
7471;SDS011;3777;48.722;8.110;2022-07-01T10:12:31;1.40;;;1.20;;
7471;SDS011;3777;48.722;8.110;2022-07-01T10:15:11;1.50;;;1.10;;
7471;SDS011;3777;48.722;8.110;2022-07-01T10:17:43;1.52;;;1.20;;
7471;SDS011;3777;48.722;8.110;2022-07-01T10:20:13;3.78;;;1.20;;
7471;SDS011;3777;48.722;8.110;2022-07-01T10:22:41;0.93;;;0.90;;
7471;SDS011;3777;48.722;8.110;2022-07-01T10:28:18;1.65;;;1.20;;
7471;SDS011;3777;48.722;8.110;2022-07-01T10:31:01;3.03;;;1.10;;
7471;SDS011;3777;48.722;8.110;2022-07-01T10:33:34;1.90;;;1.20;;
7471;SDS011;3777;48.722;8.110;2022-07-01T10:36:06;1.95;;;1.00;;
7471;SDS011;3777;48.722;8.110;2022-07-01T10:38:35;1.75;;;1.10;;
7471;SDS011;3777;48.722;8.110;2022-07-01T10:41:40;3.00;;;1.20;;
7471;SDS011;3777;48.722;8.110;2022-07-01T10:44:20;2.28;;;1.05;;
7471;SDS011;3777;48.722;8.110;2022-07-01T10:46:50;2.05;;;1.02;;
7471;SDS011;3777;48.722;8.110;2022-07-01T10:52:31;1.70;;;1.30;;
7471;SDS011;3777;48.722;8.110;2022-07-01T10:54:59;1.60;;;1.10;;
7471;SDS011;3777;48.722;8.110;2022-07-01T10:57:35;2.85;;;1.38;;
7471;SDS011;3777;48.722;8.110;2022-07-01T11:00:29;2.10;;;0.95;;
7471;SDS011;3777;48.722;8.110;2022-07-01T11:03:09;1.58;;;1.08;;
7471;SDS011;3777;48.722;8.110;2022-07-01T11:05:39;1.13;;;1.02;;
7471;SDS011;3777;48.722;8.110;2022-07-01T11:08:06;1.55;;;1.20;;
7471;SDS011;3777;48.722;8.110;2022-07-01T11:10:35;1.73;;;1.15;;
7471;SDS011;3777;48.722;8.110;2022-07-01T11:13:02;3.30;;;1.20;;
7471;SDS011;3777;48.722;8.110;2022-07-01T11:15:29;2.10;;;1.20;;
7471;SDS011;3777;48.722;8.110;2022-07-01T11:17:57;2.08;;;1.15;;
7471;SDS011;3777;48.722;8.110;2022-07-01T11:20:27;1.88;;;1.30;;
7471;SDS011;3777;48.722;8.110;2022-07-01T11:22:56;1.67;;;1.10;;
7471;SDS011;3777;48.722;8.110;2022-07-01T11:25:23;2.38;;;1.30;;
7471;SDS011;3777;48.722;8.110;2022-07-01T11:27:51;2.35;;;1.30;;
7471;SDS011;3777;48.722;8.110;2022-07-01T11:30:19;2.05;;;1.48;;
7471;SDS011;3777;48.722;8.110;2022-07-01T11:32:48;3.55;;;1.30;;
7471;SDS011;3777;48.722;8.110;2022-07-01T11:35:16;1.58;;;1.40;;
7471;SDS011;3777;48.722;8.110;2022-07-01T11:38:10;1.70;;;1.10;;
7471;SDS011;3777;48.722;8.110;2022-07-01T11:40:56;2.13;;;1.20;;
7471;SDS011;3777;48.722;8.110;2022-07-01T11:43:25;3.08;;;1.23;;
7471;SDS011;3777;48.722;8.110;2022-07-01T11:45:53;4.53;;;1.30;;
7471;SDS011;3777;48.722;8.110;2022-07-01T11:48:31;2.00;;;1.30;;
7471;SDS011;3777;48.722;8.110;2022-07-01T11:51:01;2.45;;;1.13;;
7471;SDS011;3777;48.722;8.110;2022-07-01T11:53:33;2.20;;;1.20;;
7471;SDS011;3777;48.722;8.110;2022-07-01T11:56:00;1.75;;;1.20;;
7471;SDS011;3777;48.722;8.110;2022-07-01T11:58:39;1.80;;;1.30;;
7471;SDS011;3777;48.722;8.110;2022-07-01T12:01:20;1.85;;;1.33;;
7471;SDS011;3777;48.722;8.110;2022-07-01T12:03:48;2.25;;;1.35;;
7471;SDS011;3777;48.722;8.110;2022-07-01T12:06:16;3.85;;;1.42;;
7471;SDS011;3777;48.722;8.110;2022-07-01T12:08:45;2.67;;;1.30;;
7471;SDS011;3777;48.722;8.110;2022-07-01T12:11:14;2.13;;;1.30;;
7471;SDS011;3777;48.722;8.110;2022-07-01T12:13:43;1.88;;;1.30;;
7471;SDS011;3777;48.722;8.110;2022-07-01T12:16:11;1.77;;;1.00;;
7471;SDS011;3777;48.722;8.110;2022-07-01T12:18:39;1.20;;;1.08;;
7471;SDS011;3777;48.722;8.110;2022-07-01T12:21:16;1.65;;;1.20;;
7471;SDS011;3777;48.722;8.110;2022-07-01T12:26:30;2.90;;;1.30;;
7471;SDS011;3777;48.722;8.110;2022-07-01T12:28:57;1.92;;;1.20;;
7471;SDS011;3777;48.722;8.110;2022-07-01T12:31:24;2.03;;;1.30;;
7471;SDS011;3777;48.722;8.110;2022-07-01T12:33:51;1.30;;;1.20;;
7471;SDS011;3777;48.722;8.110;2022-07-01T12:36:18;1.52;;;1.10;;
7471;SDS011;3777;48.722;8.110;2022-07-01T12:38:45;2.80;;;1.38;;
7471;SDS011;3777;48.722;8.110;2022-07-01T12:43:58;2.50;;;1.20;;
7471;SDS011;3777;48.722;8.110;2022-07-01T12:46:29;2.33;;;1.20;;
7471;SDS011;3777;48.722;8.110;2022-07-01T12:48:57;1.40;;;1.20;;
7471;SDS011;3777;48.722;8.110;2022-07-01T12:51:29;2.95;;;1.10;;
7471;SDS011;3777;48.722;8.110;2022-07-01T12:53:57;1.92;;;1.17;;
7471;SDS011;3777;48.722;8.110;2022-07-01T12:56:25;2.95;;;1.50;;
7471;SDS011;3777;48.722;8.110;2022-07-01T12:58:54;2.50;;;1.27;;
7471;SDS011;3777;48.722;8.110;2022-07-01T13:01:22;2.15;;;1.30;;
7471;SDS011;3777;48.722;8.110;2022-07-01T13:03:50;1.48;;;1.08;;
7471;SDS011;3777;48.722;8.110;2022-07-01T13:06:17;2.67;;;1.25;;
7471;SDS011;3777;48.722;8.110;2022-07-01T13:08:44;1.80;;;1.30;;
7471;SDS011;3777;48.722;8.110;2022-07-01T13:11:11;2.55;;;1.10;;
7471;SDS011;3777;48.722;8.110;2022-07-01T13:13:38;1.83;;;1.30;;
7471;SDS011;3777;48.722;8.110;2022-07-01T13:16:07;2.50;;;1.25;;
7471;SDS011;3777;48.722;8.110;2022-07-01T13:18:34;1.52;;;1.20;;
7471;SDS011;3777;48.722;8.110;2022-07-01T13:21:01;1.95;;;1.10;;
7471;SDS011;3777;48.722;8.110;2022-07-01T13:23:28;2.35;;;1.27;;
7471;SDS011;3777;48.722;8.110;2022-07-01T13:25:55;3.55;;;1.15;;
7471;SDS011;3777;48.722;8.110;2022-07-01T13:28:22;3.45;;;1.35;;
7471;SDS011;3777;48.722;8.110;2022-07-01T13:30:49;2.80;;;1.27;;
7471;SDS011;3777;48.722;8.110;2022-07-01T13:33:17;3.80;;;1.35;;
7471;SDS011;3777;48.722;8.110;2022-07-01T13:35:44;1.33;;;1.13;;
7471;SDS011;3777;48.722;8.110;2022-07-01T13:38:11;2.65;;;1.25;;
7471;SDS011;3777;48.722;8.110;2022-07-01T13:40:38;2.50;;;1.08;;
7471;SDS011;3777;48.722;8.110;2022-07-01T13:43:05;1.38;;;1.17;;
7471;SDS011;3777;48.722;8.110;2022-07-01T13:45:33;1.90;;;1.30;;
7471;SDS011;3777;48.722;8.110;2022-07-01T13:48:00;2.33;;;1.40;;
7471;SDS011;3777;48.722;8.110;2022-07-01T13:50:28;1.85;;;1.38;;
7471;SDS011;3777;48.722;8.110;2022-07-01T13:52:55;1.10;;;1.00;;
7471;SDS011;3777;48.722;8.110;2022-07-01T13:55:22;4.50;;;1.15;;
7471;SDS011;3777;48.722;8.110;2022-07-01T13:57:49;2.40;;;1.20;;
7471;SDS011;3777;48.722;8.110;2022-07-01T14:00:17;2.20;;;1.35;;
7471;SDS011;3777;48.722;8.110;2022-07-01T14:02:44;2.25;;;1.20;;
7471;SDS011;3777;48.722;8.110;2022-07-01T14:05:12;5.97;;;1.20;;
7471;SDS011;3777;48.722;8.110;2022-07-01T14:07:40;2.38;;;1.33;;
7471;SDS011;3777;48.722;8.110;2022-07-01T14:10:08;3.70;;;1.30;;
7471;SDS011;3777;48.722;8.110;2022-07-01T14:12:35;2.25;;;1.20;;
7471;SDS011;3777;48.722;8.110;2022-07-01T14:15:02;3.13;;;1.20;;
7471;SDS011;3777;48.722;8.110;2022-07-01T14:17:30;2.15;;;1.30;;
7471;SDS011;3777;48.722;8.110;2022-07-01T14:19:57;1.83;;;1.10;;
7471;SDS011;3777;48.722;8.110;2022-07-01T14:22:24;2.35;;;1.30;;
7471;SDS011;3777;48.722;8.110;2022-07-01T14:24:53;1.55;;;1.30;;
7471;SDS011;3777;48.722;8.110;2022-07-01T14:27:20;1.45;;;1.20;;
7471;SDS011;3777;48.722;8.110;2022-07-01T14:29:47;3.58;;;1.52;;
7471;SDS011;3777;48.722;8.110;2022-07-01T14:32:14;1.75;;;1.20;;
7471;SDS011;3777;48.722;8.110;2022-07-01T14:34:41;1.98;;;1.45;;
7471;SDS011;3777;48.722;8.110;2022-07-01T14:37:08;4.25;;;1.30;;
7471;SDS011;3777;48.722;8.110;2022-07-01T14:39:35;2.97;;;1.40;;
7471;SDS011;3777;48.722;8.110;2022-07-01T14:42:03;1.52;;;1.20;;
7471;SDS011;3777;48.722;8.110;2022-07-01T14:44:31;2.20;;;1.30;;
7471;SDS011;3777;48.722;8.110;2022-07-01T14:46:58;2.50;;;1.33;;
7471;SDS011;3777;48.722;8.110;2022-07-01T14:49:25;1.52;;;1.30;;
7471;SDS011;3777;48.722;8.110;2022-07-01T14:51:53;1.58;;;1.30;;
7471;SDS011;3777;48.722;8.110;2022-07-01T14:54:20;1.92;;;1.30;;
7471;SDS011;3777;48.722;8.110;2022-07-01T14:56:47;2.08;;;1.27;;
7471;SDS011;3777;48.722;8.110;2022-07-01T14:59:15;2.25;;;1.30;;
7471;SDS011;3777;48.722;8.110;2022-07-01T15:01:42;2.30;;;1.20;;
7471;SDS011;3777;48.722;8.110;2022-07-01T15:04:09;2.55;;;1.40;;
7471;SDS011;3777;48.722;8.110;2022-07-01T15:06:36;1.30;;;1.20;;
7471;SDS011;3777;48.722;8.110;2022-07-01T15:09:03;1.50;;;1.15;;
7471;SDS011;3777;48.722;8.110;2022-07-01T15:11:30;1.75;;;1.15;;
7471;SDS011;3777;48.722;8.110;2022-07-01T15:13:58;5.15;;;1.30;;
7471;SDS011;3777;48.722;8.110;2022-07-01T15:16:27;2.17;;;1.30;;
7471;SDS011;3777;48.722;8.110;2022-07-01T15:18:54;1.40;;;1.20;;
7471;SDS011;3777;48.722;8.110;2022-07-01T15:21:21;2.53;;;1.40;;
7471;SDS011;3777;48.722;8.110;2022-07-01T15:23:50;1.83;;;1.30;;
7471;SDS011;3777;48.722;8.110;2022-07-01T15:26:17;2.17;;;1.13;;
7471;SDS011;3777;48.722;8.110;2022-07-01T15:28:44;1.83;;;1.20;;
7471;SDS011;3777;48.722;8.110;2022-07-01T15:31:11;1.65;;;1.30;;
7471;SDS011;3777;48.722;8.110;2022-07-01T15:33:39;1.58;;;1.33;;
7471;SDS011;3777;48.722;8.110;2022-07-01T15:36:06;1.90;;;1.23;;
7471;SDS011;3777;48.722;8.110;2022-07-01T15:38:33;1.25;;;1.15;;